createdAt,value
2018-12-01T00:01:11.305Z,1.90
2018-12-01T00:03:38.895Z,1.90
2018-12-01T00:06:06.594Z,1.90
2018-12-01T00:08:34.290Z,2.00
2018-12-01T00:11:01.992Z,2.00
2018-12-01T00:13:29.654Z,2.10
2018-12-01T00:15:57.300Z,2.10
2018-12-01T00:18:25.068Z,1.90
2018-12-01T00:20:52.721Z,1.90
2018-12-01T00:23:20.388Z,1.90
2018-12-01T00:25:48.209Z,2.00
2018-12-01T00:28:15.862Z,2.00
2018-12-01T00:30:43.821Z,2.00
2018-12-01T00:33:11.524Z,2.00
2018-12-01T00:35:39.514Z,2.10
2018-12-01T00:38:07.210Z,2.00
2018-12-01T00:40:34.878Z,2.00
2018-12-01T00:43:02.526Z,1.90
2018-12-01T00:45:30.262Z,1.80
2018-12-01T00:47:57.917Z,2.00
2018-12-01T00:50:25.529Z,2.00
2018-12-01T00:52:53.704Z,2.10
2018-12-01T00:55:21.662Z,2.20
2018-12-01T00:57:49.877Z,2.20
2018-12-01T01:00:23.271Z,2.10
2018-12-01T01:02:53.146Z,2.20
2018-12-01T01:05:22.888Z,2.20
2018-12-01T01:07:50.542Z,2.20
2018-12-01T01:10:19.341Z,2.20
2018-12-01T01:12:47.039Z,2.20
2018-12-01T01:15:14.692Z,2.10
2018-12-01T01:17:42.465Z,1.90
2018-12-01T01:20:16.437Z,1.90
2018-12-01T01:22:44.802Z,1.90
2018-12-01T01:25:13.069Z,1.90
2018-12-01T01:27:40.794Z,1.80
2018-12-01T01:30:14.327Z,1.90
2018-12-01T01:32:41.925Z,1.90
2018-12-01T01:35:09.594Z,1.90
2018-12-01T01:37:37.269Z,1.90
2018-12-01T01:40:11.324Z,1.90
2018-12-01T01:42:39.141Z,1.90
2018-12-01T01:45:23.805Z,1.80
2018-12-01T01:47:51.488Z,1.80
2018-12-01T01:50:20.435Z,1.80
2018-12-01T01:52:48.283Z,1.80
2018-12-01T01:55:15.921Z,1.90
2018-12-01T01:57:43.598Z,1.80
2018-12-01T02:00:17.944Z,1.90
2018-12-01T02:02:47.878Z,2.00
2018-12-01T02:05:16.522Z,1.90
2018-12-01T02:07:44.202Z,1.80
2018-12-01T02:10:13.519Z,1.90
2018-12-01T02:12:41.186Z,1.90
2018-12-01T02:15:10.382Z,1.90
2018-12-01T02:17:38.035Z,2.00
2018-12-01T02:20:10.562Z,2.10
2018-12-01T02:22:39.871Z,2.00
2018-12-01T02:25:11.363Z,2.00
2018-12-01T02:27:39.003Z,1.90
2018-12-01T02:30:09.271Z,2.00
2018-12-01T02:32:37.209Z,2.00
2018-12-01T02:35:09.261Z,2.00
2018-12-01T02:37:37.205Z,2.00
2018-12-01T02:40:08.529Z,2.10
2018-12-01T02:42:36.217Z,2.20
2018-12-01T02:45:21.480Z,2.20
2018-12-01T02:47:49.138Z,2.20
2018-12-01T02:50:22.685Z,2.10
2018-12-01T02:52:50.727Z,2.00
2018-12-01T02:55:18.489Z,1.80
2018-12-01T02:57:46.208Z,1.90
2018-12-01T03:00:13.878Z,1.80
2018-12-01T03:02:41.532Z,1.80
2018-12-01T03:05:11.890Z,2.00
2018-12-01T03:07:39.918Z,2.00
2018-12-01T03:10:10.170Z,2.00
2018-12-01T03:12:37.865Z,2.00
2018-12-01T03:15:08.928Z,2.10
2018-12-01T03:17:36.581Z,1.90
2018-12-01T03:20:15.336Z,2.00
2018-12-01T03:22:43.004Z,2.10
2018-12-01T03:25:17.257Z,2.30
2018-12-01T03:27:45.534Z,2.30
2018-12-01T03:30:13.262Z,2.40
2018-12-01T03:32:40.949Z,2.40
2018-12-01T03:35:13.356Z,2.30
2018-12-01T03:37:42.668Z,2.30
2018-12-01T03:40:11.536Z,2.40
2018-12-01T03:42:39.336Z,2.40
2018-12-01T03:45:10.328Z,2.40
2018-12-01T03:47:38.414Z,2.50
2018-12-01T03:50:08.493Z,2.40
2018-12-01T03:52:36.106Z,2.50
2018-12-01T03:55:04.566Z,2.50
2018-12-01T03:57:32.163Z,2.50
2018-12-01T03:59:59.802Z,2.50
2018-12-01T04:02:27.417Z,2.60
2018-12-01T04:04:55.084Z,2.50
2018-12-01T04:07:22.735Z,2.60
2018-12-01T04:09:50.386Z,2.60
2018-12-01T04:12:17.986Z,2.60
2018-12-01T04:14:45.681Z,2.50
2018-12-01T04:17:13.349Z,2.50
2018-12-01T04:19:41.005Z,2.50
2018-12-01T04:22:08.784Z,2.50
2018-12-01T04:24:36.440Z,2.40
2018-12-01T04:27:04.425Z,2.40
2018-12-01T04:29:32.094Z,2.40
2018-12-01T04:31:59.743Z,2.40
2018-12-01T04:34:27.406Z,2.20
2018-12-01T04:36:55.029Z,2.40
2018-12-01T04:39:22.734Z,2.40
2018-12-01T04:41:50.390Z,2.40
2018-12-01T04:44:18.022Z,2.50
2018-12-01T04:46:45.658Z,2.50
2018-12-01T04:49:13.310Z,2.50
2018-12-01T04:51:40.925Z,2.60
2018-12-01T04:54:08.566Z,2.60
2018-12-01T04:56:36.209Z,2.60
2018-12-01T04:59:03.832Z,2.50
2018-12-01T05:01:31.486Z,2.50
2018-12-01T05:03:59.147Z,2.40
2018-12-01T05:06:26.821Z,2.50
2018-12-01T05:08:55.025Z,2.50
2018-12-01T05:11:22.725Z,2.50
2018-12-01T05:13:50.390Z,2.30
2018-12-01T05:16:18.116Z,2.30
2018-12-01T05:18:45.853Z,2.30
2018-12-01T05:21:13.586Z,2.40
2018-12-01T05:23:41.383Z,2.40
2018-12-01T05:26:09.039Z,2.30
2018-12-01T05:28:36.810Z,2.40
2018-12-01T05:31:04.470Z,2.50
2018-12-01T05:33:32.169Z,2.50
2018-12-01T05:35:59.909Z,2.50
2018-12-01T05:38:27.581Z,2.30
2018-12-01T05:40:55.265Z,2.50
2018-12-01T05:43:22.847Z,2.50
2018-12-01T05:45:50.492Z,2.50
2018-12-01T05:48:18.174Z,2.60
2018-12-01T05:50:45.825Z,2.70
2018-12-01T05:53:13.584Z,2.70
2018-12-01T05:55:41.217Z,2.70
2018-12-01T05:58:08.989Z,2.50
2018-12-01T06:00:36.673Z,2.60
2018-12-01T06:03:05.761Z,2.60
2018-12-01T06:05:33.374Z,2.70
2018-12-01T06:08:01.046Z,2.70
2018-12-01T06:10:28.699Z,2.70
2018-12-01T06:13:00.282Z,2.60
2018-12-01T06:15:28.651Z,2.50
2018-12-01T06:17:56.579Z,2.40
2018-12-01T06:20:24.294Z,2.30
2018-12-01T06:22:52.678Z,2.50
2018-12-01T06:25:22.165Z,2.40
2018-12-01T06:27:50.350Z,2.60
2018-12-01T06:30:19.061Z,2.50
2018-12-01T06:32:48.733Z,2.50
2018-12-01T06:35:16.674Z,2.50
2018-12-01T06:37:44.422Z,2.40
2018-12-01T06:40:18.237Z,2.50
2018-12-01T06:42:45.876Z,2.60
2018-12-01T06:45:14.617Z,2.50
2018-12-01T06:47:42.623Z,2.50
2018-12-01T06:50:13.717Z,2.60
2018-12-01T06:52:41.443Z,2.40
2018-12-01T06:55:10.814Z,2.50
2018-12-01T06:57:38.525Z,2.50
2018-12-01T07:00:14.557Z,2.40
2018-12-01T07:02:43.170Z,2.40
2018-12-01T07:05:12.493Z,2.40
2018-12-01T07:07:41.130Z,2.50
2018-12-01T07:10:11.571Z,2.50
2018-12-01T07:12:41.248Z,2.60
2018-12-01T07:15:11.917Z,2.60
2018-12-01T07:17:39.594Z,2.60
2018-12-01T07:20:08.425Z,2.50
2018-12-01T07:22:36.130Z,2.60
2018-12-01T07:25:04.439Z,2.60
2018-12-01T07:27:32.199Z,2.60
2018-12-01T07:29:59.915Z,2.60
2018-12-01T07:32:27.653Z,2.80
2018-12-01T07:34:55.343Z,2.90
2018-12-01T07:37:23.083Z,2.90
2018-12-01T07:39:50.785Z,2.80
2018-12-01T07:42:18.695Z,2.90
2018-12-01T07:44:47.046Z,3.00
2018-12-01T07:47:14.350Z,3.00
2018-12-01T07:49:42.009Z,3.00
2018-12-01T07:52:10.696Z,3.00
2018-12-01T07:54:38.481Z,3.00
2018-12-01T07:57:06.203Z,2.90
2018-12-01T07:59:33.834Z,2.90
2018-12-01T08:02:01.497Z,2.80
2018-12-01T08:04:29.182Z,2.70
2018-12-01T08:06:56.883Z,2.50
2018-12-01T08:09:24.541Z,2.40
2018-12-01T08:11:52.432Z,2.50
2018-12-01T08:14:20.195Z,2.50
2018-12-01T08:16:48.107Z,2.50
2018-12-01T08:19:15.741Z,2.70
2018-12-01T08:21:43.397Z,2.90
2018-12-01T08:24:11.227Z,3.00
2018-12-01T08:26:39.106Z,3.30
2018-12-01T08:29:06.878Z,3.20
2018-12-01T08:31:34.819Z,3.30
2018-12-01T08:34:02.488Z,3.60
2018-12-01T08:36:30.354Z,3.60
2018-12-01T08:38:58.010Z,3.40
2018-12-01T08:41:25.673Z,3.30
2018-12-01T08:43:53.472Z,3.10
2018-12-01T08:46:21.226Z,2.80
2018-12-01T08:48:48.965Z,2.80
2018-12-01T08:51:16.813Z,2.80
2018-12-01T08:53:44.429Z,3.00
2018-12-01T08:56:12.129Z,3.00
2018-12-01T08:58:39.946Z,2.80
2018-12-01T09:01:07.614Z,2.80
2018-12-01T09:03:35.536Z,2.80
2018-12-01T09:06:03.189Z,2.80
2018-12-01T09:08:30.907Z,2.80
2018-12-01T09:10:58.546Z,3.00
2018-12-01T09:13:26.202Z,3.20
2018-12-01T09:15:53.980Z,3.20
2018-12-01T09:18:21.658Z,2.80
2018-12-01T09:20:49.405Z,2.80
2018-12-01T09:23:17.060Z,2.70
2018-12-01T09:25:44.849Z,2.90
2018-12-01T09:28:12.693Z,3.00
2018-12-01T09:30:41.842Z,3.10
2018-12-01T09:33:09.552Z,3.20
2018-12-01T09:35:37.412Z,3.40
2018-12-01T09:38:05.384Z,3.70
2018-12-01T09:40:35.143Z,3.80
2018-12-01T09:43:06.678Z,4.00
2018-12-01T09:45:34.471Z,4.00
2018-12-01T09:48:03.734Z,4.10
2018-12-01T09:50:32.001Z,4.10
2018-12-01T09:53:01.619Z,4.30
2018-12-01T09:55:30.564Z,4.20
2018-12-01T09:57:59.286Z,4.30
2018-12-01T10:00:29.348Z,4.40
2018-12-01T10:02:58.050Z,4.40
2018-12-01T10:05:25.763Z,4.40
2018-12-01T10:07:53.541Z,4.60
2018-12-01T10:10:23.471Z,4.70
2018-12-01T10:12:52.996Z,4.80
2018-12-01T10:15:25.275Z,4.90
2018-12-01T10:17:52.965Z,5.10
2018-12-01T10:20:24.580Z,5.30
2018-12-01T10:22:52.226Z,4.90
2018-12-01T10:25:19.974Z,5.10
2018-12-01T10:27:47.897Z,5.20
2018-12-01T10:30:18.814Z,5.20
2018-12-01T10:32:47.150Z,5.30
2018-12-01T10:35:16.424Z,5.20
2018-12-01T10:37:48.461Z,5.60
2018-12-01T10:40:16.169Z,5.70
2018-12-01T10:42:43.854Z,5.60
2018-12-01T10:45:14.919Z,5.80
2018-12-01T10:47:43.575Z,6.10
2018-12-01T10:50:22.940Z,6.40
2018-12-01T10:52:53.205Z,6.50
2018-12-01T10:55:27.897Z,7.00
2018-12-01T10:58:01.783Z,7.30
2018-12-01T11:00:35.612Z,7.50
2018-12-01T11:03:03.706Z,8.00
2018-12-01T11:05:34.599Z,7.90
2018-12-01T11:08:03.473Z,7.60
2018-12-01T11:10:31.893Z,7.60
2018-12-01T11:13:13.744Z,7.20
2018-12-01T11:15:41.499Z,7.10
2018-12-01T11:18:09.417Z,7.00
2018-12-01T11:20:37.852Z,6.80
2018-12-01T11:23:06.671Z,6.80
2018-12-01T11:25:34.453Z,6.30
2018-12-01T11:28:02.166Z,6.20
2018-12-01T11:30:29.882Z,6.00
2018-12-01T11:32:58.950Z,6.10
2018-12-01T11:35:27.248Z,5.80
2018-12-01T11:37:55.272Z,6.00
2018-12-01T11:40:22.949Z,6.20
2018-12-01T11:42:51.218Z,5.70
2018-12-01T11:45:20.504Z,6.00
2018-12-01T11:47:48.282Z,5.80
2018-12-01T11:50:18.544Z,6.00
2018-12-01T11:52:47.887Z,5.70
2018-12-01T11:55:19.333Z,5.50
2018-12-01T11:57:47.087Z,5.20
2018-12-01T12:00:18.861Z,5.10
2018-12-01T12:02:46.940Z,5.30
2018-12-01T12:05:16.065Z,5.40
2018-12-01T12:08:16.300Z,5.40
2018-12-01T12:10:44.033Z,5.60
2018-12-01T12:13:13.250Z,5.40
2018-12-01T12:15:41.112Z,5.60
2018-12-01T12:18:08.930Z,5.70
2018-12-01T12:20:36.910Z,5.70
2018-12-01T12:23:06.771Z,5.60
2018-12-01T12:25:34.704Z,5.70
2018-12-01T12:28:02.982Z,5.30
2018-12-01T12:30:30.981Z,5.30
2018-12-01T12:32:59.030Z,5.40
2018-12-01T12:35:27.537Z,5.40
2018-12-01T12:37:55.782Z,5.50
2018-12-01T12:40:25.929Z,5.30
2018-12-01T12:42:56.030Z,5.60
2018-12-01T12:45:25.166Z,5.60
2018-12-01T12:47:53.846Z,5.70
2018-12-01T12:50:22.611Z,5.60
2018-12-01T12:52:55.605Z,5.40
2018-12-01T12:55:25.605Z,5.20
2018-12-01T12:57:54.023Z,5.40
2018-12-01T13:00:25.835Z,5.60
2018-12-01T13:03:03.092Z,5.80
2018-12-01T13:05:34.683Z,6.10
2018-12-01T13:08:02.895Z,6.30
2018-12-01T13:10:32.707Z,7.30
2018-12-01T13:13:00.438Z,8.00
2018-12-01T13:15:28.966Z,7.60
2018-12-01T13:17:56.709Z,8.00
2018-12-01T13:20:29.354Z,9.40
2018-12-01T13:23:04.392Z,11.00
2018-12-01T13:25:35.256Z,11.90
2018-12-01T13:28:10.271Z,11.40
2018-12-01T13:30:49.756Z,11.50
2018-12-01T13:33:17.983Z,11.40
2018-12-01T13:35:45.706Z,10.50
2018-12-01T13:38:13.452Z,10.80
2018-12-01T13:40:42.039Z,10.70
2018-12-01T13:43:09.863Z,10.50
2018-12-01T13:45:38.364Z,9.70
2018-12-01T13:48:07.196Z,9.50
2018-12-01T13:50:34.886Z,9.40
2018-12-01T13:53:06.853Z,9.00
2018-12-01T13:55:35.182Z,8.40
2018-12-01T13:58:02.864Z,7.60
2018-12-01T14:00:30.609Z,7.50
2018-12-01T14:02:59.272Z,7.30
2018-12-01T14:05:27.047Z,6.70
2018-12-01T14:07:54.752Z,6.40
2018-12-01T14:10:26.929Z,6.00
2018-12-01T14:12:57.922Z,5.80
2018-12-01T14:15:25.669Z,5.80
2018-12-01T14:17:53.305Z,5.60
2018-12-01T14:20:23.139Z,5.50
2018-12-01T14:22:50.940Z,5.40
2018-12-01T14:25:20.298Z,5.30
2018-12-01T14:27:53.043Z,5.10
2018-12-01T14:30:21.614Z,4.90
2018-12-01T14:32:51.784Z,4.80
2018-12-01T14:35:27.191Z,4.80
2018-12-01T14:38:07.846Z,4.90
2018-12-01T14:40:36.547Z,4.60
2018-12-01T14:43:04.285Z,4.50
2018-12-01T14:45:32.934Z,4.30
2018-12-01T14:48:00.557Z,4.20
2018-12-01T14:50:29.231Z,3.90
2018-12-01T14:52:56.866Z,3.60
2018-12-01T14:55:24.641Z,3.50
2018-12-01T14:57:52.923Z,3.50
2018-12-01T15:00:24.185Z,3.50
2018-12-01T15:02:54.937Z,3.40
2018-12-01T15:05:23.458Z,3.30
2018-12-01T15:07:51.744Z,3.30
2018-12-01T15:10:23.522Z,3.20
2018-12-01T15:12:51.249Z,3.20
2018-12-01T15:15:22.762Z,3.10
2018-12-01T15:17:50.538Z,3.00
2018-12-01T15:20:21.526Z,2.90
2018-12-01T15:22:54.517Z,2.90
2018-12-01T15:25:27.032Z,2.80
2018-12-01T15:27:54.837Z,2.70
2018-12-01T15:30:24.825Z,2.70
2018-12-01T15:33:03.662Z,2.60
2018-12-01T15:35:32.194Z,2.50
2018-12-01T15:37:59.958Z,2.60
2018-12-01T15:40:28.245Z,2.60
2018-12-01T15:42:56.101Z,2.70
2018-12-01T15:45:25.304Z,2.60
2018-12-01T15:47:54.124Z,2.70
2018-12-01T15:50:21.579Z,2.70
2018-12-01T15:52:53.604Z,2.80
2018-12-01T15:55:22.288Z,2.80
2018-12-01T15:57:50.777Z,2.90
2018-12-01T16:00:24.683Z,3.10
2018-12-01T16:02:52.573Z,3.10
2018-12-01T16:05:22.561Z,3.10
2018-12-01T16:07:56.292Z,3.20
2018-12-01T16:10:25.341Z,3.20
2018-12-01T16:13:06.826Z,3.30
2018-12-01T16:15:38.411Z,3.30
2018-12-01T16:18:08.012Z,3.40
2018-12-01T16:20:36.298Z,3.40
2018-12-01T16:23:04.547Z,3.50
2018-12-01T16:25:33.282Z,3.60
2018-12-01T16:28:02.095Z,3.60
2018-12-01T16:30:36.977Z,3.60
2018-12-01T16:33:19.441Z,3.50
2018-12-01T16:35:49.193Z,3.40
2018-12-01T16:38:22.864Z,3.20
2018-12-01T16:40:52.950Z,3.20
2018-12-01T16:43:21.506Z,3.10
2018-12-01T16:45:52.063Z,3.00
2018-12-01T16:48:21.124Z,2.70
2018-12-01T16:50:49.693Z,2.60
2018-12-01T16:53:19.369Z,2.60
2018-12-01T16:55:47.029Z,2.50
2018-12-01T16:58:14.757Z,2.40
2018-12-01T17:00:42.615Z,2.40
2018-12-01T17:03:11.495Z,2.30
2018-12-01T17:05:44.237Z,2.40
2018-12-01T17:08:11.921Z,2.40
2018-12-01T17:10:40.682Z,2.50
2018-12-01T17:13:08.904Z,2.40
2018-12-01T17:15:36.590Z,2.40
2018-12-01T17:18:06.040Z,2.50
2018-12-01T17:20:33.899Z,2.50
2018-12-01T17:23:02.179Z,2.50
2018-12-01T17:25:29.997Z,2.50
2018-12-01T17:27:59.716Z,2.50
2018-12-01T17:30:28.595Z,2.40
2018-12-01T17:32:58.095Z,2.30
2018-12-01T17:35:27.533Z,2.30
2018-12-01T17:37:58.070Z,2.20
2018-12-01T17:40:31.756Z,2.20
2018-12-01T17:42:59.486Z,2.10
2018-12-01T17:45:27.128Z,2.10
2018-12-01T17:47:54.927Z,2.10
2018-12-01T17:50:22.615Z,2.00
2018-12-01T17:52:53.353Z,1.90
2018-12-01T17:55:22.390Z,1.90
2018-12-01T17:57:51.949Z,1.90
2018-12-01T18:00:21.449Z,1.90
2018-12-01T18:02:50.917Z,1.90
2018-12-01T18:05:27.551Z,2.00
2018-12-01T18:07:55.918Z,1.90
2018-12-01T18:10:24.556Z,2.00
2018-12-01T18:12:53.925Z,1.90
2018-12-01T18:15:22.773Z,1.90
2018-12-01T18:17:50.432Z,1.80
2018-12-01T18:20:21.317Z,1.80
2018-12-01T18:22:55.778Z,1.80
2018-12-01T18:25:25.546Z,1.80
2018-12-01T18:27:55.330Z,1.80
2018-12-01T18:30:30.380Z,1.70
2018-12-01T18:33:03.835Z,1.70
2018-12-01T18:35:31.675Z,1.70
2018-12-01T18:37:59.434Z,1.70
2018-12-01T18:40:27.141Z,1.70
2018-12-01T18:42:54.933Z,1.70
2018-12-01T18:45:22.865Z,1.70
2018-12-01T18:47:50.679Z,1.60
2018-12-01T18:50:19.250Z,1.60
2018-12-01T18:52:54.747Z,1.60
2018-12-01T18:55:23.226Z,1.60
2018-12-01T18:57:51.051Z,1.60
2018-12-01T19:00:29.413Z,1.60
2018-12-01T19:02:57.180Z,1.60
2018-12-01T19:05:24.871Z,1.60
2018-12-01T19:07:52.634Z,1.60
2018-12-01T19:10:20.353Z,1.60
2018-12-01T19:12:48.134Z,1.50
2018-12-01T19:15:18.043Z,1.50
2018-12-01T19:17:47.645Z,1.60
2018-12-01T19:20:17.763Z,1.50
2018-12-01T19:22:47.288Z,1.40
2018-12-01T19:25:19.848Z,1.50
2018-12-01T19:27:48.289Z,1.40
2018-12-01T19:30:19.742Z,1.40
2018-12-01T19:32:55.938Z,1.50
2018-12-01T19:35:23.709Z,1.50
2018-12-01T19:37:53.048Z,1.40
2018-12-01T19:40:28.618Z,1.50
2018-12-01T19:42:54.091Z,1.50
2018-12-01T19:45:21.797Z,1.50
2018-12-01T19:47:50.378Z,1.50
2018-12-01T19:50:21.179Z,1.60
2018-12-01T19:52:48.919Z,1.60
2018-12-01T19:55:18.234Z,1.60
2018-12-01T19:57:45.951Z,1.60
2018-12-01T20:00:18.290Z,1.50
2018-12-01T20:02:46.141Z,1.60
2018-12-01T20:05:15.718Z,1.60
2018-12-01T20:07:44.589Z,1.70
2018-12-01T20:10:22.285Z,1.70
2018-12-01T20:13:01.078Z,1.60
2018-12-01T20:15:32.820Z,1.60
2018-12-01T20:18:04.170Z,1.70
2018-12-01T20:20:32.682Z,1.60
2018-12-01T20:23:01.218Z,1.60
2018-12-01T20:25:28.923Z,1.70
2018-12-01T20:27:56.600Z,1.70
2018-12-01T20:30:24.360Z,1.60
2018-12-01T20:32:52.239Z,1.60
2018-12-01T20:35:28.565Z,1.70
2018-12-01T20:38:09.873Z,1.70
2018-12-01T20:40:37.648Z,1.60
2018-12-01T20:43:05.843Z,1.60
2018-12-01T20:45:33.576Z,1.70
2018-12-01T20:48:01.300Z,1.70
2018-12-01T20:50:28.962Z,1.70
2018-12-01T20:52:56.674Z,1.70
2018-12-01T20:55:27.368Z,1.70
2018-12-01T20:57:57.586Z,1.70
2018-12-01T21:00:25.641Z,1.80
2018-12-01T21:02:53.402Z,1.80
2018-12-01T21:05:22.844Z,1.80
2018-12-01T21:07:50.777Z,1.80
2018-12-01T21:10:38.899Z,1.90
2018-12-01T21:13:07.014Z,2.00
2018-12-01T21:15:34.711Z,2.00
2018-12-01T21:18:02.399Z,2.10
2018-12-01T21:20:30.104Z,2.10
2018-12-01T21:22:57.837Z,2.10
2018-12-01T21:25:27.084Z,2.10
2018-12-01T21:27:58.131Z,2.10
2018-12-01T21:30:27.921Z,2.10
2018-12-01T21:33:00.110Z,2.10
2018-12-01T21:35:27.777Z,2.20
2018-12-01T21:37:55.530Z,2.30
2018-12-01T21:40:23.206Z,2.30
2018-12-01T21:42:50.938Z,2.20
2018-12-01T21:45:18.941Z,2.20
2018-12-01T21:47:46.859Z,2.20
2018-12-01T21:50:17.261Z,2.20
2018-12-01T21:52:48.003Z,2.20
2018-12-01T21:55:15.873Z,2.00
2018-12-01T21:57:45.266Z,2.00
2018-12-01T22:00:21.974Z,1.90
2018-12-01T22:02:53.335Z,1.90
2018-12-01T22:05:27.476Z,1.90
2018-12-01T22:07:55.239Z,1.90
2018-12-01T22:10:23.059Z,1.90
2018-12-01T22:12:50.751Z,1.80
2018-12-01T22:15:19.864Z,1.90
2018-12-01T22:17:47.754Z,1.90
2018-12-01T22:20:18.259Z,2.00
2018-12-01T22:22:46.146Z,2.00
2018-12-01T22:25:13.920Z,2.00
2018-12-01T22:27:41.598Z,2.00
2018-12-01T22:30:14.891Z,1.90
2018-12-01T22:32:44.890Z,2.00
2018-12-01T22:35:14.818Z,2.20
2018-12-01T22:37:42.515Z,2.30
2018-12-01T22:40:14.375Z,2.40
2018-12-01T22:42:42.063Z,2.50
2018-12-01T22:45:09.828Z,2.60
2018-12-01T22:47:37.926Z,2.60
2018-12-01T22:50:13.274Z,2.70
2018-12-01T22:52:42.914Z,2.80
2018-12-01T22:55:14.673Z,2.80
2018-12-01T22:57:44.787Z,2.80
2018-12-01T23:00:23.858Z,2.80
2018-12-01T23:02:51.623Z,2.70
2018-12-01T23:05:19.326Z,2.70
2018-12-01T23:07:47.002Z,2.80
2018-12-01T23:10:16.037Z,2.70
2018-12-01T23:12:45.409Z,2.70
2018-12-01T23:15:15.040Z,2.80
2018-12-01T23:17:47.472Z,2.80
2018-12-01T23:20:17.933Z,2.80
2018-12-01T23:22:45.867Z,2.70
2018-12-01T23:25:13.611Z,2.60
2018-12-01T23:27:41.255Z,2.60
2018-12-01T23:30:22.120Z,2.50
2018-12-01T23:33:00.868Z,2.50
2018-12-01T23:35:29.651Z,2.40
2018-12-01T23:37:57.775Z,2.40
2018-12-01T23:40:25.536Z,2.40
2018-12-01T23:42:53.299Z,2.30
2018-12-01T23:45:21.682Z,2.30
2018-12-01T23:47:49.537Z,2.20
2018-12-01T23:50:20.799Z,2.30
2018-12-01T23:52:51.403Z,2.10
2018-12-01T23:55:19.110Z,2.10
2018-12-01T23:57:46.980Z,2.10
